createdAt,value
2022-08-02T00:02:08.505Z,101548.34
2022-08-02T00:05:13.596Z,101543.22
2022-08-02T00:08:16.298Z,101556.16
2022-08-02T00:11:19.015Z,101557.69
2022-08-02T00:14:21.636Z,101550.81
2022-08-02T00:17:24.424Z,101550.19
2022-08-02T00:20:28.358Z,101558.50
2022-08-02T00:23:31.067Z,101555.81
2022-08-02T00:26:33.756Z,101560.75
2022-08-02T00:29:42.699Z,101547.56
2022-08-02T00:32:55.759Z,101547.69
2022-08-02T00:35:59.694Z,101554.47
2022-08-02T00:39:02.300Z,101554.63
2022-08-02T00:42:05.283Z,101539.06
2022-08-02T00:45:09.037Z,101547.16
2022-08-02T00:48:12.871Z,101545.44
2022-08-02T00:51:18.067Z,101544.75
2022-08-02T00:54:20.849Z,101546.22
2022-08-02T00:57:23.498Z,101541.34
2022-08-02T01:00:26.107Z,101544.16
2022-08-02T01:03:32.923Z,101554.63
2022-08-02T01:06:37.151Z,101558.09
2022-08-02T01:09:39.733Z,101562.88
2022-08-02T01:12:42.380Z,101566.25
2022-08-02T01:15:52.317Z,101572.25
2022-08-02T01:19:07.828Z,101578.84
2022-08-02T01:23:00.601Z,101576.78
2022-08-02T01:26:19.037Z,101578.78
2022-08-02T01:29:30.279Z,101576.25
2022-08-02T01:32:37.950Z,101574.00
2022-08-02T01:35:50.723Z,101584.13
2022-08-02T01:38:57.111Z,101575.81
2022-08-02T01:42:01.570Z,101572.72
2022-08-02T01:45:09.040Z,101568.63
2022-08-02T01:48:14.033Z,101573.53
2022-08-02T01:51:19.506Z,101572.94
2022-08-02T01:54:25.939Z,101571.56
2022-08-02T01:57:33.595Z,101576.06
2022-08-02T02:00:44.610Z,101566.75
2022-08-02T02:03:49.589Z,101568.75
2022-08-02T02:06:53.620Z,101565.66
2022-08-02T02:09:57.817Z,101569.16
2022-08-02T02:13:03.914Z,101568.53
2022-08-02T02:16:08.542Z,101578.63
2022-08-02T02:19:14.103Z,101583.69
2022-08-02T02:22:24.066Z,101579.03
2022-08-02T02:25:36.123Z,101587.31
2022-08-02T02:28:47.724Z,101575.88
2022-08-02T02:31:55.773Z,101577.81
2022-08-02T02:35:02.527Z,101573.97
2022-08-02T02:38:07.535Z,101565.94
2022-08-02T02:41:11.506Z,101564.16
2022-08-02T02:44:21.509Z,101558.00
2022-08-02T02:47:40.302Z,101549.00
2022-08-02T02:50:45.346Z,101552.00
2022-08-02T02:54:30.158Z,101549.06
2022-08-02T02:57:13.037Z,101544.69
2022-08-02T03:00:16.162Z,101547.94
2022-08-02T03:03:21.462Z,101548.78
2022-08-02T03:06:25.521Z,101552.06
2022-08-02T03:09:28.146Z,101556.16
2022-08-02T03:12:32.502Z,101548.81
2022-08-02T03:15:35.894Z,101548.06
2022-08-02T03:18:40.877Z,101541.00
2022-08-02T03:21:43.909Z,101536.19
2022-08-02T03:24:46.549Z,101536.72
2022-08-02T03:27:49.139Z,101539.75
2022-08-02T03:30:51.842Z,101539.50
2022-08-02T03:33:57.174Z,101534.13
2022-08-02T03:37:00.809Z,101545.47
2022-08-02T03:40:04.531Z,101545.41
2022-08-02T03:43:08.102Z,101546.97
2022-08-02T03:46:11.275Z,101537.59
2022-08-02T03:49:18.453Z,101540.69
2022-08-02T03:52:21.567Z,101551.72
2022-08-02T03:55:24.404Z,101544.97
2022-08-02T03:58:27.413Z,101550.75
2022-08-02T04:01:30.007Z,101545.53
2022-08-02T04:04:33.974Z,101545.53
2022-08-02T04:08:34.574Z,101544.47
2022-08-02T04:11:16.790Z,101533.06
2022-08-02T04:14:19.842Z,101533.44
2022-08-02T04:17:24.930Z,101531.97
2022-08-02T04:20:32.502Z,101538.91
2022-08-02T04:23:37.460Z,101537.34
2022-08-02T04:26:44.053Z,101547.41
2022-08-02T04:29:53.545Z,101543.72
2022-08-02T04:32:56.623Z,101545.34
2022-08-02T04:36:00.688Z,101554.72
2022-08-02T04:39:03.473Z,101553.00
2022-08-02T04:42:06.926Z,101558.22
2022-08-02T04:45:11.836Z,101558.53
2022-08-02T04:48:19.374Z,101566.47
2022-08-02T04:51:23.306Z,101568.75
2022-08-02T04:54:40.877Z,101569.81
2022-08-02T04:57:58.694Z,101569.94
2022-08-02T05:01:01.556Z,101568.22
2022-08-02T05:04:04.684Z,101561.66
2022-08-02T05:07:08.611Z,101569.00
2022-08-02T05:10:11.597Z,101569.94
2022-08-02T05:13:14.188Z,101569.16
2022-08-02T05:16:16.843Z,101565.03
2022-08-02T05:19:19.418Z,101562.72
2022-08-02T05:22:23.358Z,101552.41
2022-08-02T05:25:26.914Z,101560.66
2022-08-02T05:28:29.491Z,101554.94
2022-08-02T05:31:34.471Z,101564.53
2022-08-02T05:34:37.033Z,101561.81
2022-08-02T05:37:42.200Z,101557.69
2022-08-02T05:40:54.383Z,101571.81
2022-08-02T05:43:57.914Z,101565.97
2022-08-02T05:47:00.521Z,101568.69
2022-08-02T05:50:03.197Z,101571.56
2022-08-02T05:53:17.114Z,101581.31
2022-08-02T05:56:26.047Z,101575.53
2022-08-02T05:59:34.418Z,101569.78
2022-08-02T06:02:49.158Z,101571.03
2022-08-02T06:05:57.216Z,101568.50
2022-08-02T06:09:03.928Z,101573.25
2022-08-02T06:12:10.737Z,101579.31
2022-08-02T06:15:15.177Z,101567.38
2022-08-02T06:18:19.059Z,101553.69
2022-08-02T06:22:33.089Z,101558.00
2022-08-02T06:24:56.507Z,101556.59
2022-08-02T06:28:00.796Z,101555.81
2022-08-02T06:31:03.886Z,101555.78
2022-08-02T06:34:06.494Z,101560.31
2022-08-02T06:37:15.630Z,101565.03
2022-08-02T06:40:27.931Z,101576.06
2022-08-02T06:43:39.327Z,101571.03
2022-08-02T06:47:10.032Z,101570.88
2022-08-02T06:50:05.891Z,101566.06
2022-08-02T06:53:09.088Z,101563.78
2022-08-02T06:56:13.018Z,101564.84
2022-08-02T06:59:15.623Z,101564.31
2022-08-02T07:02:18.314Z,101558.72
2022-08-02T07:05:20.966Z,101551.78
2022-08-02T07:08:23.818Z,101558.09
2022-08-02T07:11:27.787Z,101554.53
2022-08-02T07:14:30.367Z,101559.06
2022-08-02T07:17:35.926Z,101559.22
2022-08-02T07:20:38.516Z,101543.75
2022-08-02T07:23:41.067Z,101540.00
2022-08-02T07:27:08.602Z,101548.19
2022-08-02T07:30:09.050Z,101551.78
2022-08-02T07:33:11.761Z,101548.84
2022-08-02T07:36:34.403Z,101538.81
2022-08-02T07:39:37.574Z,101537.31
2022-08-02T07:42:51.871Z,101534.69
2022-08-02T07:46:00.830Z,101534.19
2022-08-02T07:49:03.809Z,101548.75
2022-08-02T07:52:06.425Z,101548.44
2022-08-02T07:55:11.563Z,101547.47
2022-08-02T07:58:16.386Z,101549.03
2022-08-02T08:01:20.305Z,101552.91
2022-08-02T08:04:23.395Z,101546.72
2022-08-02T08:07:25.963Z,101535.41
2022-08-02T08:10:29.093Z,101537.16
2022-08-02T08:13:33.042Z,101539.66
2022-08-02T08:16:35.885Z,101538.88
2022-08-02T08:19:50.870Z,101526.75
2022-08-02T08:22:54.899Z,101523.25
2022-08-02T08:25:57.489Z,101515.28
2022-08-02T08:29:06.412Z,101508.81
2022-08-02T08:32:14.125Z,101499.56
2022-08-02T08:35:19.187Z,101497.41
2022-08-02T08:38:22.074Z,101492.22
2022-08-02T08:41:25.647Z,101486.72
2022-08-02T08:44:34.745Z,101479.72
2022-08-02T08:47:39.834Z,101483.63
2022-08-02T08:50:48.583Z,101482.59
2022-08-02T08:53:55.375Z,101485.59
2022-08-02T08:56:58.629Z,101476.44
2022-08-02T09:00:02.878Z,101478.28
2022-08-02T09:03:06.966Z,101470.53
2022-08-02T09:06:09.601Z,101469.91
2022-08-02T09:09:12.225Z,101469.78
2022-08-02T09:12:15.962Z,101480.53
2022-08-02T09:15:25.885Z,101479.63
2022-08-02T09:18:32.384Z,101474.31
2022-08-02T09:21:37.476Z,101474.66
2022-08-02T09:24:45.681Z,101471.81
2022-08-02T09:27:49.380Z,101479.84
2022-08-02T09:30:53.842Z,101471.09
2022-08-02T09:33:58.441Z,101464.81
2022-08-02T09:37:01.135Z,101469.88
2022-08-02T09:40:05.601Z,101464.47
2022-08-02T09:43:09.924Z,101447.47
2022-08-02T09:46:15.874Z,101456.41
2022-08-02T09:49:21.173Z,101438.84
2022-08-02T09:52:37.398Z,101437.00
2022-08-02T09:55:56.220Z,101444.47
2022-08-02T09:58:58.918Z,101457.84
2022-08-02T10:02:14.812Z,101453.28
2022-08-02T10:05:22.033Z,101456.41
2022-08-02T10:08:26.478Z,101444.91
2022-08-02T10:11:29.740Z,101435.31
2022-08-02T10:14:34.718Z,101442.47
2022-08-02T10:17:39.103Z,101436.72
2022-08-02T10:20:45.503Z,101453.88
2022-08-02T10:23:50.614Z,101441.28
2022-08-02T10:26:54.710Z,101431.47
2022-08-02T10:29:59.915Z,101444.16
2022-08-02T10:33:05.356Z,101434.75
2022-08-02T10:36:11.011Z,101437.47
2022-08-02T10:39:14.179Z,101438.66
2022-08-02T10:42:47.882Z,101442.59
2022-08-02T10:45:51.954Z,101437.56
2022-08-02T10:52:33.075Z,101419.19
2022-08-02T10:55:45.823Z,101418.22
2022-08-02T10:58:48.460Z,101413.00
2022-08-02T11:01:51.800Z,101413.97
2022-08-02T11:05:08.853Z,101409.25
2022-08-02T11:08:21.959Z,101403.34
2022-08-02T11:11:54.298Z,101399.13
2022-08-02T11:15:00.236Z,101389.56
2022-08-02T11:18:02.802Z,101384.41
2022-08-02T11:21:28.281Z,101383.28
2022-08-02T11:24:32.479Z,101373.50
2022-08-02T11:27:35.118Z,101375.22
2022-08-02T11:30:38.888Z,101376.78
2022-08-02T11:33:41.607Z,101381.69
2022-08-02T11:36:47.330Z,101376.94
2022-08-02T11:39:52.563Z,101376.41
2022-08-02T11:42:55.197Z,101370.69
2022-08-02T11:45:57.946Z,101362.50
2022-08-02T11:49:12.679Z,101357.13
2022-08-02T11:52:17.047Z,101354.13
2022-08-02T11:55:19.665Z,101358.81
2022-08-02T11:58:22.470Z,101367.69
2022-08-02T12:01:25.066Z,101367.88
2022-08-02T12:04:27.682Z,101364.97
2022-08-02T12:07:35.345Z,101359.16
2022-08-02T12:10:48.372Z,101355.25
2022-08-02T12:13:56.781Z,101348.94
2022-08-02T12:17:18.021Z,101348.94
2022-08-02T12:20:21.226Z,101349.75
2022-08-02T12:23:25.683Z,101337.28
2022-08-02T12:26:28.428Z,101325.81
2022-08-02T12:29:58.446Z,101320.19
2022-08-02T12:32:55.265Z,101316.81
2022-08-02T12:35:58.075Z,101328.03
2022-08-02T12:39:02.611Z,101321.53
2022-08-02T12:42:06.439Z,101315.34
2022-08-02T12:45:09.792Z,101322.13
2022-08-02T12:48:12.506Z,101317.50
2022-08-02T12:51:51.130Z,101320.41
2022-08-02T12:54:50.209Z,101308.44
2022-08-02T12:57:55.150Z,101296.44
2022-08-02T13:00:59.745Z,101300.13
2022-08-02T13:04:10.221Z,101301.28
2022-08-02T13:07:16.029Z,101281.75
2022-08-02T13:10:21.344Z,101275.59
2022-08-02T13:13:23.958Z,101286.19
2022-08-02T13:16:30.685Z,101275.63
2022-08-02T13:19:34.206Z,101285.38
2022-08-02T13:22:37.369Z,101285.22
2022-08-02T13:25:52.917Z,101289.47
2022-08-02T13:28:55.635Z,101287.81
2022-08-02T13:31:58.258Z,101288.78
2022-08-02T13:35:00.841Z,101284.66
2022-08-02T13:38:06.450Z,101292.19
2022-08-02T13:41:10.469Z,101282.84
2022-08-02T13:44:13.042Z,101283.28
2022-08-02T13:47:15.864Z,101278.13
2022-08-02T13:50:38.440Z,101275.31
2022-08-02T13:53:41.106Z,101266.78
2022-08-02T13:56:45.082Z,101261.13
2022-08-02T13:59:58.295Z,101270.69
2022-08-02T14:03:01.858Z,101271.75
2022-08-02T14:06:06.649Z,101264.84
2022-08-02T14:09:09.280Z,101259.28
2022-08-02T14:12:19.771Z,101248.31
2022-08-02T14:15:22.597Z,101254.72
2022-08-02T14:18:25.282Z,101254.94
2022-08-02T14:21:27.857Z,101251.25
2022-08-02T14:24:31.635Z,101253.28
2022-08-02T14:27:39.329Z,101248.16
2022-08-02T14:30:42.662Z,101247.47
2022-08-02T14:33:45.294Z,101241.16
2022-08-02T14:36:53.314Z,101254.63
2022-08-02T14:40:00.058Z,101247.44
2022-08-02T14:43:05.286Z,101237.66
2022-08-02T14:46:07.894Z,101233.19
2022-08-02T14:49:12.175Z,101244.75
2022-08-02T14:52:19.533Z,101241.19
2022-08-02T14:55:22.221Z,101234.47
2022-08-02T14:58:26.144Z,101232.22
2022-08-02T15:01:28.798Z,101226.88
2022-08-02T15:04:34.354Z,101219.84
2022-08-02T15:07:49.557Z,101216.19
2022-08-02T15:10:52.440Z,101214.81
2022-08-02T15:13:59.137Z,101213.13
2022-08-02T15:17:03.548Z,101218.84
2022-08-02T15:20:25.516Z,101215.91
2022-08-02T15:23:37.086Z,101217.00
2022-08-02T15:26:40.291Z,101221.09
2022-08-02T15:29:45.869Z,101211.22
2022-08-02T15:32:53.365Z,101198.63
2022-08-02T15:35:56.414Z,101197.00
2022-08-02T15:38:58.982Z,101201.19
2022-08-02T15:42:01.636Z,101194.59
2022-08-02T15:45:06.250Z,101198.91
2022-08-02T15:48:08.972Z,101194.16
2022-08-02T15:51:11.622Z,101197.16
2022-08-02T15:54:14.222Z,101191.88
2022-08-02T15:57:16.772Z,101188.47
2022-08-02T16:00:22.269Z,101188.38
2022-08-02T16:03:24.875Z,101191.56
2022-08-02T16:06:27.555Z,101187.84
2022-08-02T16:09:30.693Z,101192.91
2022-08-02T16:12:33.615Z,101186.47
2022-08-02T16:15:37.534Z,101187.00
2022-08-02T16:18:40.156Z,101182.84
2022-08-02T16:21:42.807Z,101180.19
2022-08-02T16:24:45.717Z,101181.38
2022-08-02T16:27:59.431Z,101177.69
2022-08-02T16:31:11.817Z,101170.94
2022-08-02T16:34:15.788Z,101166.47
2022-08-02T16:37:18.406Z,101177.09
2022-08-02T16:40:21.167Z,101176.00
2022-08-02T16:43:23.830Z,101176.94
2022-08-02T16:46:31.531Z,101164.25
2022-08-02T16:50:04.600Z,101164.97
2022-08-02T16:52:58.878Z,101162.09
2022-08-02T16:56:01.794Z,101159.66
2022-08-02T16:59:04.527Z,101155.66
2022-08-02T17:02:19.561Z,101154.97
2022-08-02T17:05:24.359Z,101153.00
2022-08-02T17:08:40.385Z,101146.44
2022-08-02T17:11:57.842Z,101149.91
2022-08-02T17:16:00.979Z,101151.63
2022-08-02T17:18:26.948Z,101145.09
2022-08-02T17:21:31.757Z,101149.22
2022-08-02T17:24:34.383Z,101146.41
2022-08-02T17:27:37.577Z,101148.69
2022-08-02T17:30:40.241Z,101145.97
2022-08-02T17:33:44.168Z,101148.53
2022-08-02T17:36:49.846Z,101154.69
2022-08-02T17:39:52.573Z,101153.84
2022-08-02T17:42:55.174Z,101155.38
2022-08-02T17:46:00.533Z,101146.22
2022-08-02T17:49:20.763Z,101156.06
2022-08-02T17:52:52.356Z,101138.53
2022-08-02T17:55:50.886Z,101138.56
2022-08-02T17:58:54.088Z,101136.13
2022-08-02T18:01:58.487Z,101145.00
2022-08-02T18:05:11.827Z,101132.31
2022-08-02T18:08:18.366Z,101138.31
2022-08-02T18:11:51.762Z,101140.59
2022-08-02T18:14:49.199Z,101135.63
2022-08-02T18:17:52.162Z,101135.06
2022-08-02T18:21:15.606Z,101144.06
2022-08-02T18:24:24.065Z,101146.34
2022-08-02T18:27:26.840Z,101154.06
2022-08-02T18:30:29.442Z,101150.19
2022-08-02T18:33:57.863Z,101145.06
2022-08-02T18:36:56.267Z,101142.19
2022-08-02T18:39:58.886Z,101158.44
2022-08-02T18:43:03.440Z,101152.91
2022-08-02T18:46:15.731Z,101151.16
2022-08-02T18:49:19.685Z,101151.31
2022-08-02T18:52:31.549Z,101150.19
2022-08-02T18:55:59.524Z,101145.59
2022-08-02T18:58:58.409Z,101145.59
2022-08-02T19:02:01.121Z,101161.56
2022-08-02T19:05:06.891Z,101155.31
2022-08-02T19:08:11.593Z,101153.72
2022-08-02T19:11:14.242Z,101155.84
2022-08-02T19:14:19.131Z,101150.81
2022-08-02T19:17:55.197Z,101153.91
2022-08-02T19:20:52.571Z,101150.13
2022-08-02T19:23:56.528Z,101154.91
2022-08-02T19:26:59.179Z,101149.50
2022-08-02T19:30:16.879Z,101164.03
2022-08-02T19:33:54.331Z,101161.31
2022-08-02T19:36:42.066Z,101153.91
2022-08-02T19:39:46.216Z,101160.03
2022-08-02T19:44:21.516Z,101155.75
2022-08-02T19:46:15.543Z,101155.75
2022-08-02T19:49:39.151Z,101158.56
2022-08-02T19:52:42.086Z,101156.31
2022-08-02T19:56:00.158Z,101160.28
2022-08-02T19:59:13.175Z,101159.44
2022-08-02T20:02:17.299Z,101157.72
2022-08-02T20:05:24.105Z,101159.63
2022-08-02T20:08:31.924Z,101158.56
2022-08-02T20:11:40.230Z,101157.72
2022-08-02T20:14:50.970Z,101154.00
2022-08-02T20:17:54.050Z,101154.56
2022-08-02T20:20:56.703Z,101160.28
2022-08-02T20:23:59.644Z,101164.59
2022-08-02T20:27:04.491Z,101150.16
2022-08-02T20:30:08.263Z,101151.00
2022-08-02T20:33:21.651Z,101156.81
2022-08-02T20:36:25.171Z,101152.81
2022-08-02T20:39:42.841Z,101155.34
2022-08-02T20:42:48.632Z,101157.91
2022-08-02T20:45:51.551Z,101166.78
2022-08-02T20:48:55.937Z,101164.78
2022-08-02T20:52:02.151Z,101169.66
2022-08-02T20:55:05.006Z,101170.88
2022-08-02T20:58:11.665Z,101160.72
2022-08-02T21:01:14.657Z,101168.59
2022-08-02T21:04:19.368Z,101164.72
2022-08-02T21:07:22.081Z,101163.31
2022-08-02T21:10:24.729Z,101155.13
2022-08-02T21:13:29.172Z,101160.41
2022-08-02T21:16:32.040Z,101156.59
2022-08-02T21:19:36.544Z,101162.72
2022-08-02T21:22:46.847Z,101151.47
2022-08-02T21:25:57.406Z,101156.75
2022-08-02T21:32:25.254Z,101154.03
2022-08-02T21:35:28.080Z,101152.50
2022-08-02T21:38:35.865Z,101138.84
2022-08-02T21:41:45.929Z,101144.03
2022-08-02T21:44:51.216Z,101156.06
2022-08-02T21:47:53.833Z,101150.03
2022-08-02T21:50:56.414Z,101159.63
2022-08-02T21:54:18.197Z,101144.97
2022-08-02T21:57:21.675Z,101154.22
2022-08-02T22:00:28.841Z,101148.56
2022-08-02T22:03:32.558Z,101148.72
2022-08-02T22:06:35.590Z,101148.16
2022-08-02T22:09:43.628Z,101155.13
2022-08-02T22:12:47.830Z,101155.59
2022-08-02T22:15:51.782Z,101162.47
2022-08-02T22:18:55.178Z,101161.09
2022-08-02T22:22:00.380Z,101161.75
2022-08-02T22:25:04.191Z,101162.03
2022-08-02T22:28:36.768Z,101164.47
2022-08-02T22:31:40.961Z,101164.72
2022-08-02T22:34:51.718Z,101166.09
2022-08-02T22:38:16.932Z,101168.53
2022-08-02T22:41:18.462Z,101171.09
2022-08-02T22:44:21.091Z,101174.31
2022-08-02T22:47:25.031Z,101176.25
2022-08-02T22:50:29.539Z,101179.72
2022-08-02T22:53:35.859Z,101177.25
2022-08-02T22:56:38.849Z,101175.28
2022-08-02T22:59:47.281Z,101174.28
2022-08-02T23:02:52.864Z,101176.91
2022-08-02T23:05:56.034Z,101176.13
2022-08-02T23:08:58.669Z,101172.69
2022-08-02T23:12:01.239Z,101179.97
2022-08-02T23:15:04.387Z,101182.38
2022-08-02T23:18:25.811Z,101182.78
2022-08-02T23:22:01.360Z,101174.06
2022-08-02T23:24:55.894Z,101176.34
2022-08-02T23:27:58.651Z,101171.38
2022-08-02T23:31:01.545Z,101172.69
2022-08-02T23:34:06.009Z,101164.25
2022-08-02T23:37:09.500Z,101158.56
2022-08-02T23:40:12.397Z,101163.84
2022-08-02T23:43:18.737Z,101165.97
2022-08-02T23:46:21.333Z,101167.06
2022-08-02T23:49:25.540Z,101155.63
2022-08-02T23:52:28.249Z,101158.66
2022-08-02T23:55:31.634Z,101148.09
2022-08-02T23:58:34.267Z,101151.28
